Time;durP1;ratioP1;P1;durP2;ratioP2;P2;SDS_P1;SDS_P2;PMS_P1;PMS_P2;Temp;Humidity;BMP_temperature;BMP_pressure;BME280_temperature;BME280_humidity;BME280_pressure;Samples;Min_cycle;Max_cycle;Signal;HPM_P1;HPM_P2
2022/12/25 00:01:10;;;;;;;78.90;23.95;;;;;;;;;;5008567;28;98278;-77
2022/12/25 00:03:37;;;;;;;63.05;20.55;;;;;;;;;;5008886;28;99631;-76
2022/12/25 00:06:04;;;;;;;69.40;20.17;;;;;;;;;;5008825;28;100445;-75
2022/12/25 00:08:30;;;;;;;65.25;20.33;;;;;;;;;;5007593;28;98572;-75
2022/12/25 00:11:07;;;;;;;74.68;21.67;;;;;;;;;;5009142;28;99697;-75
2022/12/25 00:13:34;;;;;;;71.72;19.90;;;;;;;;;;5008716;28;100018;-75
2022/12/25 00:16:04;;;;;;;65.68;18.40;;;;;;;;;;5008509;28;98238;-75
2022/12/25 00:18:30;;;;;;;69.13;18.15;;;;;;;;;;5008516;28;100029;-75
2022/12/25 00:21:01;;;;;;;65.75;20.55;;;;;;;;;;5011863;28;99023;-74
2022/12/25 00:23:27;;;;;;;68.15;19.38;;;;;;;;;;5007958;28;99084;-76
2022/12/25 00:25:54;;;;;;;50.22;17.60;;;;;;;;;;5008609;28;99151;-75
2022/12/25 00:28:21;;;;;;;57.20;19.40;;;;;;;;;;5008446;28;98266;-76
2022/12/25 00:30:48;;;;;;;51.60;15.90;;;;;;;;;;5008045;28;99499;-75
2022/12/25 00:33:14;;;;;;;61.05;17.55;;;;;;;;;;5008642;28;100137;-76
2022/12/25 00:35:41;;;;;;;68.72;19.05;;;;;;;;;;5008029;28;98318;-74
2022/12/25 00:38:08;;;;;;;54.83;15.88;;;;;;;;;;5008035;28;99723;-75
2022/12/25 00:40:40;;;;;;;62.90;18.08;;;;;;;;;;5008039;28;100144;-75
2022/12/25 00:43:07;;;;;;;47.13;17.08;;;;;;;;;;5010887;28;98667;-76
2022/12/25 00:45:33;;;;;;;68.97;20.23;;;;;;;;;;5006666;28;99138;-75
2022/12/25 00:48:00;;;;;;;51.65;16.45;;;;;;;;;;5008327;28;98270;-75
2022/12/25 00:50:26;;;;;;;55.22;17.27;;;;;;;;;;5007608;28;99685;-75
2022/12/25 00:52:53;;;;;;;60.13;18.38;;;;;;;;;;5007638;28;99430;-77
2022/12/25 00:55:19;;;;;;;70.60;18.67;;;;;;;;;;5008331;28;98653;-76
2022/12/25 00:57:45;;;;;;;50.65;15.60;;;;;;;;;;5005558;28;98821;-74
2022/12/25 01:00:12;;;;;;;45.92;17.25;;;;;;;;;;5008136;28;99913;-75
2022/12/25 01:02:38;;;;;;;54.92;18.00;;;;;;;;;;5008035;28;98937;-75
2022/12/25 01:05:05;;;;;;;58.20;15.80;;;;;;;;;;5010175;28;98789;-76
2022/12/25 01:07:31;;;;;;;45.40;16.02;;;;;;;;;;5007185;28;98281;-76
2022/12/25 01:12:43;;;;;;;55.60;16.00;;;;;;;;;;5007043;28;100074;-76
2022/12/25 01:15:10;;;;;;;61.72;16.45;;;;;;;;;;5007817;28;98262;-75
2022/12/25 01:17:36;;;;;;;55.53;16.33;;;;;;;;;;5007104;28;98720;-76
2022/12/25 01:20:03;;;;;;;55.65;15.93;;;;;;;;;;5007067;28;100200;-75
2022/12/25 01:22:30;;;;;;;57.80;16.40;;;;;;;;;;5007557;28;98498;-75
2022/12/25 01:24:56;;;;;;;61.55;16.33;;;;;;;;;;5007504;28;98900;-75
2022/12/25 01:27:22;;;;;;;45.17;15.07;;;;;;;;;;5010270;28;99021;-76
2022/12/25 01:29:49;;;;;;;54.03;16.50;;;;;;;;;;5008027;28;99798;-75
2022/12/25 01:32:15;;;;;;;47.00;14.60;;;;;;;;;;5007152;28;100032;-75
2022/12/25 01:34:41;;;;;;;51.63;16.77;;;;;;;;;;5006031;28;98305;-76
2022/12/25 01:37:09;;;;;;;42.67;14.93;;;;;;;;;;5007701;28;99880;-76
2022/12/25 01:39:35;;;;;;;46.92;16.42;;;;;;;;;;5006657;28;100132;-75
2022/12/25 01:42:02;;;;;;;51.92;15.32;;;;;;;;;;5007481;28;98334;-76
2022/12/25 01:44:34;;;;;;;62.03;17.40;;;;;;;;;;5006986;28;98814;-76
2022/12/25 01:47:04;;;;;;;61.00;17.52;;;;;;;;;;5006845;28;100082;-75
2022/12/25 01:49:32;;;;;;;59.90;16.27;;;;;;;;;;5010343;28;98310;-76
2022/12/25 01:52:04;;;;;;;40.72;15.73;;;;;;;;;;5007564;28;100251;-76
2022/12/25 01:54:35;;;;;;;63.07;16.87;;;;;;;;;;5006651;28;98315;-75
2022/12/25 01:57:04;;;;;;;49.50;15.70;;;;;;;;;;5007110;28;98858;-75
2022/12/25 01:59:30;;;;;;;52.22;16.52;;;;;;;;;;5006024;28;100100;-75
2022/12/25 02:01:57;;;;;;;53.97;16.13;;;;;;;;;;5006574;28;98259;-75
2022/12/25 02:04:38;;;;;;;40.78;15.25;;;;;;;;;;5007050;28;99789;-75
2022/12/25 02:07:06;;;;;;;56.90;17.42;;;;;;;;;;5006362;28;98991;-76
2022/12/25 02:09:32;;;;;;;48.85;18.35;;;;;;;;;;5008477;28;98559;-75
2022/12/25 02:11:59;;;;;;;60.58;18.35;;;;;;;;;;5007057;28;100005;-76
2022/12/25 02:14:26;;;;;;;53.33;18.27;;;;;;;;;;5006343;28;98314;-76
2022/12/25 02:16:59;;;;;;;54.25;17.60;;;;;;;;;;5007356;28;99856;-76
2022/12/25 02:19:38;;;;;;;52.03;17.67;;;;;;;;;;5006627;28;99043;-75
2022/12/25 02:22:13;;;;;;;64.25;17.83;;;;;;;;;;5005980;28;98339;-76
2022/12/25 02:24:48;;;;;;;65.85;18.48;;;;;;;;;;5005425;28;98693;-75
2022/12/25 02:27:33;;;;;;;61.25;19.02;;;;;;;;;;5006796;28;99878;-75
2022/12/25 02:30:04;;;;;;;55.67;17.85;;;;;;;;;;5006451;28;98389;-76
2022/12/25 02:32:48;;;;;;;64.97;20.17;;;;;;;;;;5009074;28;99226;-76
2022/12/25 02:35:26;;;;;;;77.85;20.90;;;;;;;;;;5006671;28;98285;-76
2022/12/25 02:38:09;;;;;;;66.53;20.40;;;;;;;;;;5007043;28;99460;-75
2022/12/25 02:40:41;;;;;;;53.28;18.83;;;;;;;;;;5006905;28;99956;-75
2022/12/25 03:08:23;;;;;;;71.03;20.35;;;;;;;;;;5006475;28;98792;-75
2022/12/25 03:13:42;;;;;;;61.10;19.48;;;;;;;;;;5006245;28;98156;-75
2022/12/25 03:18:55;;;;;;;61.65;20.77;;;;;;;;;;5004690;28;100201;-75
2022/12/25 03:27:05;;;;;;;44.45;18.83;;;;;;;;;;5009124;28;98311;-75
2022/12/25 03:32:35;;;;;;;60.92;20.45;;;;;;;;;;5008636;28;98934;-76
2022/12/25 03:35:23;;;;;;;62.35;21.13;;;;;;;;;;5009255;28;98394;-76
2022/12/25 04:36:12;;;;;;;60.35;19.10;;;;;;;;;;5007969;28;99858;-75
2022/12/25 04:38:39;;;;;;;55.15;20.15;;;;;;;;;;5008387;28;100400;-75
2022/12/25 04:41:06;;;;;;;51.80;19.15;;;;;;;;;;5007723;28;98262;-76
2022/12/25 04:43:33;;;;;;;54.40;19.95;;;;;;;;;;5007631;28;99396;-76
2022/12/25 04:46:00;;;;;;;52.42;20.15;;;;;;;;;;5007873;28;99666;-75
2022/12/25 04:48:27;;;;;;;49.72;18.33;;;;;;;;;;5008325;28;98484;-75
2022/12/25 04:50:53;;;;;;;55.88;18.25;;;;;;;;;;5007711;28;99467;-75
2022/12/25 04:53:20;;;;;;;45.70;17.98;;;;;;;;;;5007614;28;99184;-75
2022/12/25 04:55:46;;;;;;;44.15;17.42;;;;;;;;;;5011430;28;98252;-75
2022/12/25 04:58:13;;;;;;;39.65;16.08;;;;;;;;;;5008514;28;99125;-75
2022/12/25 05:00:39;;;;;;;51.97;18.30;;;;;;;;;;5007905;28;98339;-75
2022/12/25 05:03:06;;;;;;;56.35;17.73;;;;;;;;;;5008353;28;98608;-74
2022/12/25 05:05:32;;;;;;;60.38;19.17;;;;;;;;;;5007226;28;99143;-75
2022/12/25 05:07:59;;;;;;;35.45;16.45;;;;;;;;;;5008068;28;98576;-74
2022/12/25 05:10:25;;;;;;;47.58;16.90;;;;;;;;;;5007301;28;99537;-76
2022/12/25 05:12:52;;;;;;;61.00;18.02;;;;;;;;;;5007092;28;98080;-76
2022/12/25 05:15:18;;;;;;;47.88;17.00;;;;;;;;;;5007419;28;98376;-75
2022/12/25 05:17:44;;;;;;;36.78;15.35;;;;;;;;;;5010307;28;99603;-75
2022/12/25 05:20:11;;;;;;;46.75;16.38;;;;;;;;;;5007497;28;98265;-75
2022/12/25 05:22:37;;;;;;;53.17;16.95;;;;;;;;;;5007934;28;99515;-74
2022/12/25 05:25:04;;;;;;;48.58;16.90;;;;;;;;;;5006979;28;99871;-75
2022/12/25 05:27:30;;;;;;;45.60;16.45;;;;;;;;;;5007364;28;98295;-75
2022/12/25 05:29:56;;;;;;;49.15;17.58;;;;;;;;;;5006881;28;99407;-75
2022/12/25 05:32:23;;;;;;;49.78;16.38;;;;;;;;;;5006481;28;98948;-75
2022/12/25 05:34:49;;;;;;;38.35;15.45;;;;;;;;;;5007487;28;98365;-75
2022/12/25 05:37:15;;;;;;;50.22;14.68;;;;;;;;;;5007080;28;98658;-75
2022/12/25 05:39:42;;;;;;;37.53;15.77;;;;;;;;;;5009822;28;99908;-76
2022/12/25 05:42:08;;;;;;;41.20;14.85;;;;;;;;;;5007244;28;98735;-75
2022/12/25 05:44:35;;;;;;;34.45;16.45;;;;;;;;;;5006087;28;99467;-76
2022/12/25 05:47:01;;;;;;;38.60;15.52;;;;;;;;;;5007327;28;98421;-75
2022/12/25 05:49:27;;;;;;;47.63;16.05;;;;;;;;;;5007148;28;99442;-75
2022/12/25 05:51:54;;;;;;;37.33;15.25;;;;;;;;;;5007112;28;99985;-77
2022/12/25 05:54:20;;;;;;;42.92;15.32;;;;;;;;;;5005354;28;98315;-74
2022/12/25 05:56:47;;;;;;;39.03;16.02;;;;;;;;;;5006977;28;99636;-75
2022/12/25 05:59:13;;;;;;;43.13;16.90;;;;;;;;;;5007293;28;100234;-75
2022/12/25 06:01:39;;;;;;;36.58;15.40;;;;;;;;;;5009575;28;98279;-75
2022/12/25 06:04:06;;;;;;;43.58;15.50;;;;;;;;;;5006945;28;99905;-75
2022/12/25 06:06:38;;;;;;;38.00;15.47;;;;;;;;;;5006021;28;98976;-75
2022/12/25 06:09:04;;;;;;;44.50;15.13;;;;;;;;;;5007373;28;99695;-75
2022/12/25 06:11:30;;;;;;;30.63;13.73;;;;;;;;;;5006907;28;100144;-75
2022/12/25 06:13:57;;;;;;;48.65;17.08;;;;;;;;;;5006645;28;98298;-76
2022/12/25 06:16:23;;;;;;;32.13;14.77;;;;;;;;;;5006823;28;98900;-75
2022/12/25 06:18:53;;;;;;;39.17;16.05;;;;;;;;;;5006634;28;100377;-75
2022/12/25 06:21:19;;;;;;;28.50;13.63;;;;;;;;;;5009722;28;98520;-75
2022/12/25 06:23:46;;;;;;;38.30;14.75;;;;;;;;;;5006547;28;100207;-75
2022/12/25 06:26:14;;;;;;;46.00;15.18;;;;;;;;;;5006487;28;98290;-75
2022/12/25 06:28:41;;;;;;;40.08;15.18;;;;;;;;;;5005418;28;98809;-76
2022/12/25 06:31:08;;;;;;;38.08;13.50;;;;;;;;;;5006638;28;99317;-74
2022/12/25 06:33:35;;;;;;;30.88;13.93;;;;;;;;;;5006097;28;98303;-75
2022/12/25 06:36:31;;;;;;;39.45;12.63;;;;;;;;;;5006994;28;99562;-75
2022/12/25 06:39:00;;;;;;;29.55;11.88;;;;;;;;;;4993242;28;100209;-76
2022/12/25 06:41:28;;;;;;;35.05;12.10;;;;;;;;;;5005993;28;98209;-75
2022/12/25 06:43:55;;;;;;;30.05;12.15;;;;;;;;;;5007941;28;98466;-76
2022/12/25 06:46:23;;;;;;;22.48;11.32;;;;;;;;;;5006965;28;98289;-76
2022/12/25 06:48:50;;;;;;;24.25;11.13;;;;;;;;;;5006279;28;98770;-75
2022/12/25 06:51:16;;;;;;;22.65;10.93;;;;;;;;;;5006763;28;99910;-75
2022/12/25 06:53:43;;;;;;;29.38;11.32;;;;;;;;;;5006318;28;99455;-75
2022/12/25 06:56:14;;;;;;;20.98;10.80;;;;;;;;;;5006637;28;99643;-75
2022/12/25 06:58:44;;;;;;;30.17;11.57;;;;;;;;;;5009089;28;99216;-75
2022/12/25 07:01:21;;;;;;;27.20;10.98;;;;;;;;;;5009802;28;98378;-75
2022/12/25 07:03:50;;;;;;;24.83;10.48;;;;;;;;;;5009659;28;101055;-75
2022/12/25 07:06:16;;;;;;;25.67;10.57;;;;;;;;;;5013176;28;99955;-75
2022/12/25 07:08:43;;;;;;;23.90;10.77;;;;;;;;;;5008309;28;99031;-74
2022/12/25 07:11:09;;;;;;;20.85;10.15;;;;;;;;;;5008575;28;99050;-75
2022/12/25 07:13:36;;;;;;;20.77;10.15;;;;;;;;;;5009942;28;98254;-75
2022/12/25 07:16:03;;;;;;;26.38;10.82;;;;;;;;;;5009379;28;98595;-75
2022/12/25 07:18:30;;;;;;;20.65;9.65;;;;;;;;;;5009134;28;98942;-75
2022/12/25 07:20:58;;;;;;;22.42;9.77;;;;;;;;;;5010333;28;98339;-75
2022/12/25 07:23:25;;;;;;;18.85;9.57;;;;;;;;;;5010306;28;98664;-75
2022/12/25 07:25:53;;;;;;;23.20;10.07;;;;;;;;;;5009358;28;99151;-77
2022/12/25 07:28:19;;;;;;;21.77;9.77;;;;;;;;;;5013249;28;98422;-76
2022/12/25 07:30:45;;;;;;;30.38;10.70;;;;;;;;;;5009780;28;99096;-75
2022/12/25 07:33:12;;;;;;;13.65;8.63;;;;;;;;;;5008214;28;98448;-75
2022/12/25 07:35:38;;;;;;;17.77;9.70;;;;;;;;;;5009057;28;100020;-75
2022/12/25 07:38:05;;;;;;;21.98;10.07;;;;;;;;;;5008602;28;99824;-75
2022/12/25 07:40:31;;;;;;;20.90;8.85;;;;;;;;;;5009213;28;98298;-77
2022/12/25 07:42:57;;;;;;;24.33;9.82;;;;;;;;;;5009262;28;98768;-75
2022/12/25 07:45:24;;;;;;;20.70;9.77;;;;;;;;;;5008167;28;100380;-74
2022/12/25 07:47:50;;;;;;;18.33;8.90;;;;;;;;;;5009256;28;98264;-76
2022/12/25 07:50:20;;;;;;;17.88;10.02;;;;;;;;;;5012891;28;99338;-76
2022/12/25 07:52:46;;;;;;;20.50;8.90;;;;;;;;;;5008902;28;98262;-74
2022/12/25 07:55:13;;;;;;;18.83;9.02;;;;;;;;;;5009580;28;99683;-74
2022/12/25 07:57:39;;;;;;;23.02;9.98;;;;;;;;;;5008004;28;99548;-75
2022/12/25 08:00:06;;;;;;;20.65;9.48;;;;;;;;;;5008428;28;98115;-74
2022/12/25 08:02:37;;;;;;;17.40;8.40;;;;;;;;;;5008932;28;98980;-74
2022/12/25 08:05:03;;;;;;;22.05;9.23;;;;;;;;;;5008733;28;98837;-75
2022/12/25 08:07:30;;;;;;;20.85;10.20;;;;;;;;;;5008074;28;98375;-75
2022/12/25 08:09:56;;;;;;;23.05;8.82;;;;;;;;;;5008558;28;98548;-75
2022/12/25 08:12:23;;;;;;;17.35;7.95;;;;;;;;;;5012155;28;100131;-75
2022/12/25 08:14:49;;;;;;;17.73;9.27;;;;;;;;;;5008616;28;99544;-75
2022/12/25 08:17:15;;;;;;;16.63;8.52;;;;;;;;;;5008583;28;99177;-75
2022/12/25 08:19:42;;;;;;;16.15;8.60;;;;;;;;;;5008419;28;98276;-75
2022/12/25 08:22:08;;;;;;;18.85;8.77;;;;;;;;;;5007083;28;99659;-75
2022/12/25 08:24:35;;;;;;;14.13;8.27;;;;;;;;;;5008174;28;99411;-75
2022/12/25 08:27:01;;;;;;;16.63;7.80;;;;;;;;;;5008851;28;98238;-74
2022/12/25 08:29:28;;;;;;;20.02;8.43;;;;;;;;;;5008190;28;99833;-75
2022/12/25 08:31:54;;;;;;;14.45;7.30;;;;;;;;;;5011966;28;99998;-74
2022/12/25 08:34:21;;;;;;;18.05;8.40;;;;;;;;;;5008168;28;98712;-74
2022/12/25 08:36:47;;;;;;;15.85;7.95;;;;;;;;;;5008444;28;99011;-75
2022/12/25 08:39:13;;;;;;;12.68;7.60;;;;;;;;;;5008748;28;98312;-75
2022/12/25 08:41:40;;;;;;;13.23;7.88;;;;;;;;;;5007813;28;99379;-75
2022/12/25 08:44:07;;;;;;;14.18;7.88;;;;;;;;;;5008428;28;101560;-76
2022/12/25 08:46:35;;;;;;;18.73;7.80;;;;;;;;;;5007420;28;98311;-74
2022/12/25 08:49:01;;;;;;;21.10;8.93;;;;;;;;;;5007640;28;98608;-76
2022/12/25 08:51:28;;;;;;;18.27;8.20;;;;;;;;;;5008061;28;99924;-76
2022/12/25 08:53:57;;;;;;;20.20;8.98;;;;;;;;;;5011849;28;98577;-76
2022/12/25 08:56:23;;;;;;;12.35;7.50;;;;;;;;;;5007428;28;99849;-75
2022/12/25 08:58:50;;;;;;;15.15;8.02;;;;;;;;;;5008359;28;98161;-76
2022/12/25 09:01:16;;;;;;;16.65;7.43;;;;;;;;;;5008297;28;99724;-75
2022/12/25 09:03:43;;;;;;;13.68;8.18;;;;;;;;;;5007489;28;100573;-75
2022/12/25 09:06:13;;;;;;;15.68;7.78;;;;;;;;;;5008025;28;98388;-74
2022/12/25 09:08:40;;;;;;;20.33;8.15;;;;;;;;;;5007749;28;99442;-74
2022/12/25 09:11:14;;;;;;;19.20;7.85;;;;;;;;;;5006083;28;100499;-75
2022/12/25 09:13:40;;;;;;;13.02;7.63;;;;;;;;;;5007764;28;98275;-76
2022/12/25 09:16:07;;;;;;;20.15;7.80;;;;;;;;;;5011207;28;98914;-76
2022/12/25 09:18:35;;;;;;;21.98;8.05;;;;;;;;;;5006875;28;98795;-75
2022/12/25 09:21:04;;;;;;;13.82;8.20;;;;;;;;;;5007472;28;99711;-75
2022/12/25 09:23:31;;;;;;;12.20;7.97;;;;;;;;;;5006547;28;99194;-75
2022/12/25 09:25:58;;;;;;;13.90;7.97;;;;;;;;;;5007265;28;98384;-76
2022/12/25 09:28:25;;;;;;;20.70;7.72;;;;;;;;;;5007737;28;98698;-77
2022/12/25 09:30:51;;;;;;;12.15;6.95;;;;;;;;;;5006904;28;99003;-75
2022/12/25 09:33:18;;;;;;;15.85;7.78;;;;;;;;;;5007671;28;98320;-75
2022/12/25 09:35:52;;;;;;;16.08;8.07;;;;;;;;;;5006785;28;99738;-75
2022/12/25 09:38:18;;;;;;;13.27;8.02;;;;;;;;;;5010298;28;98132;-75
2022/12/25 09:40:44;;;;;;;14.63;7.13;;;;;;;;;;5007783;28;99494;-75
2022/12/25 09:43:15;;;;;;;18.23;7.40;;;;;;;;;;5007858;28;98927;-76
2022/12/25 09:45:43;;;;;;;11.95;7.13;;;;;;;;;;5007084;28;98206;-76
2022/12/25 09:48:12;;;;;;;13.88;7.43;;;;;;;;;;5007552;28;98609;-76
2022/12/25 09:50:48;;;;;;;19.13;7.93;;;;;;;;;;5007101;28;100250;-76
2022/12/25 09:53:18;;;;;;;13.60;7.07;;;;;;;;;;5007556;28;98279;-75
2022/12/25 09:56:07;;;;;;;15.10;7.55;;;;;;;;;;5006988;28;98726;-75
2022/12/25 09:58:33;;;;;;;8.90;6.25;;;;;;;;;;4998182;28;100211;-75
2022/12/25 10:01:18;;;;;;;12.75;6.45;;;;;;;;;;5010026;28;98708;-75
2022/12/25 10:03:45;;;;;;;15.82;6.93;;;;;;;;;;5007026;28;100258;-76
2022/12/25 10:06:14;;;;;;;13.48;7.15;;;;;;;;;;5006802;28;98313;-75
2022/12/25 10:08:46;;;;;;;12.18;7.70;;;;;;;;;;5006592;28;98575;-76
2022/12/25 10:11:33;;;;;;;15.18;7.28;;;;;;;;;;5007198;28;100803;-76
2022/12/25 10:13:59;;;;;;;11.77;7.55;;;;;;;;;;4974705;28;98463;-75
2022/12/25 10:16:33;;;;;;;17.42;8.68;;;;;;;;;;5006966;28;99702;-74
2022/12/25 10:19:04;;;;;;;12.65;7.68;;;;;;;;;;5007325;28;100065;-74
2022/12/25 10:21:31;;;;;;;21.08;8.65;;;;;;;;;;5006140;28;98242;-75
2022/12/25 10:23:57;;;;;;;17.65;7.65;;;;;;;;;;5010197;28;99706;-76
2022/12/25 10:26:24;;;;;;;53.97;28.98;;;;;;;;;;5006116;28;98120;-76
2022/12/25 10:29:18;;;;;;;17.85;8.57;;;;;;;;;;5006721;28;99544;-75
2022/12/25 10:31:45;;;;;;;22.35;9.35;;;;;;;;;;5007536;28;100409;-76
2022/12/25 10:34:13;;;;;;;26.25;9.38;;;;;;;;;;5010222;28;98375;-77
2022/12/25 10:36:40;;;;;;;18.30;9.07;;;;;;;;;;5009888;28;98723;-77
2022/12/25 10:39:06;;;;;;;17.10;9.43;;;;;;;;;;5010497;28;99959;-79
2022/12/25 10:41:52;;;;;;;21.60;11.98;;;;;;;;;;5010016;28;98854;-80
2022/12/25 10:44:20;;;;;;;17.83;8.85;;;;;;;;;;5013846;28;100125;-81
2022/12/25 10:46:47;;;;;;;17.23;10.23;;;;;;;;;;5010304;28;98275;-80
2022/12/25 10:49:15;;;;;;;20.80;10.60;;;;;;;;;;5009587;28;98514;-81
2022/12/25 10:51:41;;;;;;;24.38;11.13;;;;;;;;;;5009126;28;100305;-80
2022/12/25 10:54:17;;;;;;;18.85;10.85;;;;;;;;;;5010597;28;98660;-80
2022/12/25 10:56:53;;;;;;;21.58;12.40;;;;;;;;;;5009710;28;99902;-81
2022/12/25 10:59:19;;;;;;;21.95;13.10;;;;;;;;;;5009552;28;99423;-81
2022/12/25 11:01:45;;;;;;;22.35;12.57;;;;;;;;;;5009141;28;99601;-80
2022/12/25 11:04:27;;;;;;;22.55;12.55;;;;;;;;;;5010017;28;100002;-79
2022/12/25 11:07:12;;;;;;;30.83;16.58;;;;;;;;;;5013354;28;100393;-78
2022/12/25 11:09:38;;;;;;;40.75;17.13;;;;;;;;;;5008592;28;98689;-77
2022/12/25 11:12:05;;;;;;;34.90;16.50;;;;;;;;;;5009098;28;99747;-78
2022/12/25 11:14:31;;;;;;;27.08;16.27;;;;;;;;;;5009233;28;98326;-77
2022/12/25 11:17:07;;;;;;;28.73;13.48;;;;;;;;;;5008624;28;99543;-77
2022/12/25 11:19:34;;;;;;;31.25;13.43;;;;;;;;;;5008838;28;99153;-76
2022/12/25 11:22:02;;;;;;;29.52;13.93;;;;;;;;;;5009795;28;98398;-76
2022/12/25 11:24:30;;;;;;;28.23;12.75;;;;;;;;;;5008797;28;98620;-75
2022/12/25 11:27:01;;;;;;;24.30;15.25;;;;;;;;;;5011038;28;100280;-77
2022/12/25 11:29:42;;;;;;;26.98;13.73;;;;;;;;;;5012986;28;98241;-75
2022/12/25 11:32:34;;;;;;;27.60;14.23;;;;;;;;;;5008781;28;99613;-75
2022/12/25 11:35:01;;;;;;;26.10;17.05;;;;;;;;;;5006844;28;98304;-75
2022/12/25 11:37:43;;;;;;;27.45;13.13;;;;;;;;;;5008866;28;100037;-75
2022/12/25 11:40:32;;;;;;;22.73;11.98;;;;;;;;;;5009001;28;99156;-77
2022/12/25 11:43:03;;;;;;;24.15;12.45;;;;;;;;;;5007723;28;98291;-75
2022/12/25 11:46:09;;;;;;;25.65;12.70;;;;;;;;;;5008702;28;99435;-76
2022/12/25 11:48:39;;;;;;;21.98;13.55;;;;;;;;;;4946694;28;100186;-76
2022/12/25 11:51:05;;;;;;;21.38;13.00;;;;;;;;;;4996828;28;98339;-76
2022/12/25 11:53:32;;;;;;;37.33;15.18;;;;;;;;;;5012010;28;99529;-76
2022/12/25 11:56:05;;;;;;;35.00;21.88;;;;;;;;;;5009826;28;98298;-75
2022/12/25 11:58:39;;;;;;;29.42;15.98;;;;;;;;;;5008583;28;98900;-75
2022/12/25 12:01:27;;;;;;;27.25;16.75;;;;;;;;;;5009568;28;99159;-76
2022/12/25 12:03:54;;;;;;;23.80;12.23;;;;;;;;;;5009623;28;98672;-76
2022/12/25 12:06:31;;;;;;;15.10;9.68;;;;;;;;;;5008315;28;99441;-76
2022/12/25 12:09:04;;;;;;;17.83;11.98;;;;;;;;;;5007729;28;99297;-76
2022/12/25 12:11:33;;;;;;;24.27;13.02;;;;;;;;;;5008038;28;98138;-76
2022/12/25 12:14:18;;;;;;;27.90;14.10;;;;;;;;;;5007683;28;98557;-76
2022/12/25 12:16:45;;;;;;;31.58;15.60;;;;;;;;;;5011853;28;100080;-76
2022/12/25 12:19:12;;;;;;;33.47;15.38;;;;;;;;;;5008668;28;99363;-75
2022/12/25 12:21:39;;;;;;;25.70;14.40;;;;;;;;;;5008680;28;100192;-75
2022/12/25 12:24:05;;;;;;;30.00;14.38;;;;;;;;;;5008890;28;98347;-74
2022/12/25 12:26:35;;;;;;;25.55;14.77;;;;;;;;;;5008502;28;99509;-76
2022/12/25 12:29:03;;;;;;;24.63;13.82;;;;;;;;;;5008474;28;99186;-77
2022/12/25 12:31:41;;;;;;;22.08;12.85;;;;;;;;;;5008654;28;98285;-77
2022/12/25 12:34:33;;;;;;;20.08;12.38;;;;;;;;;;5006835;28;98650;-75
2022/12/25 12:37:11;;;;;;;25.88;12.65;;;;;;;;;;5004998;28;99284;-75
2022/12/25 12:39:39;;;;;;;18.60;12.63;;;;;;;;;;5011814;28;99562;-75
2022/12/25 12:42:12;;;;;;;20.23;13.45;;;;;;;;;;5007845;28;100172;-75
2022/12/25 12:44:39;;;;;;;25.95;14.70;;;;;;;;;;5007779;28;98082;-75
2022/12/25 12:47:05;;;;;;;26.98;14.98;;;;;;;;;;5008403;28;98829;-75
2022/12/25 12:49:32;;;;;;;29.08;14.85;;;;;;;;;;5006829;28;99189;-77
2022/12/25 12:52:06;;;;;;;27.20;16.23;;;;;;;;;;5008771;28;98812;-75
2022/12/25 12:54:33;;;;;;;20.35;12.70;;;;;;;;;;5007344;28;99638;-75
2022/12/25 12:57:01;;;;;;;28.30;16.05;;;;;;;;;;5007463;28;99015;-75
2022/12/25 12:59:38;;;;;;;30.02;14.80;;;;;;;;;;5010078;28;98326;-77
2022/12/25 13:02:37;;;;;;;24.30;15.13;;;;;;;;;;5007537;28;100252;-75
2022/12/25 13:05:14;;;;;;;30.10;16.23;;;;;;;;;;4974318;28;98179;-75
2022/12/25 13:08:00;;;;;;;35.00;17.73;;;;;;;;;;5007674;28;99696;-76
2022/12/25 13:10:33;;;;;;;29.27;16.42;;;;;;;;;;5006657;28;99268;-76
2022/12/25 13:13:12;;;;;;;36.28;24.35;;;;;;;;;;5007784;28;98784;-76
2022/12/25 13:15:39;;;;;;;37.17;19.98;;;;;;;;;;5007101;28;99590;-76
2022/12/25 13:18:08;;;;;;;35.78;19.63;;;;;;;;;;5008103;28;100035;-76
2022/12/25 13:20:40;;;;;;;34.30;20.70;;;;;;;;;;5007981;28;98484;-77
2022/12/25 13:23:22;;;;;;;48.03;24.02;;;;;;;;;;5010327;28;99714;-76
2022/12/25 13:25:59;;;;;;;52.10;25.55;;;;;;;;;;5007369;28;98820;-76
2022/12/25 13:28:26;;;;;;;38.50;22.73;;;;;;;;;;5007781;28;99718;-76
2022/12/25 13:31:00;;;;;;;37.22;22.45;;;;;;;;;;5007176;28;100217;-76
2022/12/25 13:33:26;;;;;;;45.88;23.17;;;;;;;;;;5007703;28;98323;-76
2022/12/25 13:35:53;;;;;;;44.53;23.05;;;;;;;;;;5007535;28;99522;-76
2022/12/25 13:38:21;;;;;;;40.70;22.83;;;;;;;;;;5007341;28;100387;-76
2022/12/25 13:43:41;;;;;;;38.92;23.30;;;;;;;;;;5006844;28;99627;-76
2022/12/25 13:46:11;;;;;;;46.60;24.00;;;;;;;;;;5010881;28;99488;-77
2022/12/25 13:48:37;;;;;;;47.00;24.27;;;;;;;;;;5007428;28;98491;-77
2022/12/25 13:51:12;;;;;;;43.78;24.60;;;;;;;;;;5005523;28;99016;-75
2022/12/25 13:53:38;;;;;;;41.92;22.45;;;;;;;;;;5006726;28;98423;-77
2022/12/25 13:56:05;;;;;;;35.88;23.38;;;;;;;;;;5007767;28;99417;-77
2022/12/25 13:58:32;;;;;;;46.47;25.63;;;;;;;;;;5006067;28;99190;-76
2022/12/25 14:01:00;;;;;;;57.40;29.30;;;;;;;;;;5007063;28;99145;-77
2022/12/25 14:03:29;;;;;;;47.25;26.02;;;;;;;;;;5006913;28;99499;-76
2022/12/25 14:05:59;;;;;;;49.42;26.63;;;;;;;;;;5006091;28;99964;-76
2022/12/25 14:08:27;;;;;;;41.55;24.48;;;;;;;;;;5010364;28;98205;-76
2022/12/25 14:10:54;;;;;;;38.30;23.98;;;;;;;;;;5007107;28;100019;-76
2022/12/25 14:13:22;;;;;;;36.40;23.65;;;;;;;;;;5006458;28;98425;-76
2022/12/25 14:15:49;;;;;;;49.92;26.77;;;;;;;;;;5006613;28;98691;-76
2022/12/25 14:18:17;;;;;;;50.85;28.75;;;;;;;;;;5006873;28;99146;-76
2022/12/25 14:21:01;;;;;;;44.90;27.45;;;;;;;;;;5007170;28;99082;-76
2022/12/25 14:23:38;;;;;;;44.58;27.33;;;;;;;;;;5006780;28;98422;-76
2022/12/25 14:26:04;;;;;;;62.30;32.60;;;;;;;;;;5006339;28;100455;-76
2022/12/25 14:28:33;;;;;;;46.30;27.55;;;;;;;;;;5006663;28;98309;-76
2022/12/25 14:31:00;;;;;;;55.28;31.05;;;;;;;;;;5010054;28;99542;-75
2022/12/25 14:33:28;;;;;;;44.42;26.67;;;;;;;;;;5006517;28;98709;-76
2022/12/25 14:35:55;;;;;;;46.67;28.13;;;;;;;;;;5006965;28;99572;-75
2022/12/25 14:38:23;;;;;;;45.40;26.40;;;;;;;;;;5006523;28;100087;-78
2022/12/25 14:40:59;;;;;;;47.25;26.70;;;;;;;;;;5005634;28;98374;-77
2022/12/25 14:43:27;;;;;;;48.38;28.33;;;;;;;;;;5006265;28;98574;-77
2022/12/25 14:45:54;;;;;;;56.20;32.10;;;;;;;;;;5006641;28;99934;-77
2022/12/25 14:48:22;;;;;;;56.00;31.48;;;;;;;;;;5006183;28;98270;-76
2022/12/25 14:51:02;;;;;;;40.63;25.45;;;;;;;;;;5006465;28;99485;-76
2022/12/25 14:53:32;;;;;;;57.30;29.98;;;;;;;;;;5009525;28;99622;-76
2022/12/25 14:55:59;;;;;;;70.63;34.60;;;;;;;;;;5005444;28;98542;-76
2022/12/25 14:58:29;;;;;;;80.72;37.60;;;;;;;;;;5006548;28;100097;-75
2022/12/25 15:01:00;;;;;;;46.50;27.38;;;;;;;;;;5006514;28;98203;-75
2022/12/25 15:03:28;;;;;;;55.53;31.33;;;;;;;;;;5006299;28;98970;-76
2022/12/25 15:06:20;;;;;;;52.03;30.20;;;;;;;;;;5005797;28;99887;-76
2022/12/25 15:08:54;;;;;;;42.25;26.77;;;;;;;;;;5004014;28;98388;-76
2022/12/25 15:11:20;;;;;;;55.08;31.73;;;;;;;;;;5006600;28;99437;-76
2022/12/25 15:13:46;;;;;;;45.63;29.63;;;;;;;;;;5008978;28;100306;-76
2022/12/25 15:16:15;;;;;;;63.42;35.67;;;;;;;;;;5005180;28;98720;-76
2022/12/25 15:18:43;;;;;;;73.00;37.22;;;;;;;;;;5008651;28;100076;-76
2022/12/25 15:21:14;;;;;;;64.68;35.45;;;;;;;;;;5010260;28;98294;-76
2022/12/25 15:23:40;;;;;;;57.63;32.13;;;;;;;;;;5008740;28;98541;-75
2022/12/25 15:26:13;;;;;;;55.90;30.80;;;;;;;;;;5009458;28;100050;-76
2022/12/25 15:28:39;;;;;;;;;;;;;;;;;;5010244;28;98139;-76
2022/12/25 15:31:23;;;;;;;68.05;36.38;;;;;;;;;;5007569;28;129786;-75
2022/12/25 15:33:50;;;;;;;50.35;30.83;;;;;;;;;;5009023;28;98867;-76
2022/12/25 15:36:17;;;;;;;84.45;36.00;;;;;;;;;;5012369;28;98321;-75
2022/12/25 15:38:44;;;;;;;56.40;31.77;;;;;;;;;;5008871;28;99038;-75
2022/12/25 15:42:09;;;;;;;50.58;28.33;;;;;;;;;;5009606;28;98282;-76
2022/12/25 15:44:02;;;;;;;49.35;27.65;;;;;;;;;;5008481;28;99631;-76
2022/12/25 15:46:30;;;;;;;67.63;32.42;;;;;;;;;;5008919;28;100178;-75
2022/12/25 15:48:56;;;;;;;69.30;33.50;;;;;;;;;;5010007;28;98008;-77
2022/12/25 15:51:22;;;;;;;57.42;32.28;;;;;;;;;;5008606;28;99296;-76
2022/12/25 15:53:49;;;;;;;105.45;43.60;;;;;;;;;;5009195;28;100006;-76
2022/12/25 15:56:15;;;;;;;55.97;31.50;;;;;;;;;;5008564;28;98329;-76
2022/12/25 15:58:42;;;;;;;52.00;29.92;;;;;;;;;;5011552;28;99706;-77
2022/12/25 16:01:12;;;;;;;48.75;30.08;;;;;;;;;;5009348;28;98329;-77
2022/12/25 16:03:38;;;;;;;63.05;33.05;;;;;;;;;;5008264;28;98481;-76
2022/12/25 16:06:05;;;;;;;55.80;33.33;;;;;;;;;;5008404;28;99993;-77
2022/12/25 16:08:31;;;;;;;66.15;32.50;;;;;;;;;;5008730;28;98258;-76
2022/12/25 16:10:57;;;;;;;49.00;28.70;;;;;;;;;;5009147;28;98845;-77
2022/12/25 16:13:23;;;;;;;74.20;34.88;;;;;;;;;;5007979;28;99082;-77
2022/12/25 16:15:50;;;;;;;57.55;32.85;;;;;;;;;;5008639;28;98869;-75